createdAt,value
2023-02-15T00:00:44.640Z,101255.69
2023-02-15T00:03:18.182Z,101253.84
2023-02-15T00:05:47.171Z,101261.38
2023-02-15T00:08:15.851Z,101257.72
2023-02-15T00:10:44.556Z,101257.13
2023-02-15T00:13:13.430Z,101256.03
2023-02-15T00:15:42.166Z,101252.38
2023-02-15T00:18:10.913Z,101266.78
2023-02-15T00:20:41.561Z,101254.22
2023-02-15T00:23:10.369Z,101265.03
2023-02-15T00:25:39.050Z,101267.25
2023-02-15T00:28:07.941Z,101266.34
2023-02-15T00:30:37.229Z,101263.28
2023-02-15T00:33:06.067Z,101256.72
2023-02-15T00:35:35.839Z,101262.50
2023-02-15T00:38:06.449Z,101262.44
2023-02-15T00:40:35.194Z,101261.13
2023-02-15T00:43:03.890Z,101259.88
2023-02-15T00:45:32.710Z,101252.84
2023-02-15T00:48:01.916Z,101252.06
2023-02-15T00:50:30.757Z,101251.75
2023-02-15T00:52:59.529Z,101253.59
2023-02-15T00:55:29.841Z,101254.25
2023-02-15T00:57:59.000Z,101251.44
2023-02-15T01:00:27.780Z,101249.81
2023-02-15T01:02:58.565Z,101249.09
2023-02-15T01:05:27.352Z,101240.38
2023-02-15T01:07:56.084Z,101246.56
2023-02-15T01:10:25.102Z,101245.59
2023-02-15T01:12:56.240Z,101244.63
2023-02-15T01:15:25.963Z,101236.91
2023-02-15T01:17:55.394Z,101240.75
2023-02-15T01:20:26.527Z,101241.09
2023-02-15T01:22:57.255Z,101237.75
2023-02-15T01:25:27.003Z,101243.13
2023-02-15T01:27:59.051Z,101236.84
2023-02-15T01:30:28.502Z,101242.91
2023-02-15T01:32:57.251Z,101232.00
2023-02-15T01:35:26.210Z,101231.34
2023-02-15T01:37:56.773Z,101224.19
2023-02-15T01:40:26.937Z,101232.06
2023-02-15T01:42:56.293Z,101236.84
2023-02-15T01:45:30.402Z,101237.06
2023-02-15T01:48:04.184Z,101236.84
2023-02-15T01:50:37.064Z,101241.00
2023-02-15T01:53:11.899Z,101235.00
2023-02-15T01:55:44.931Z,101243.22
2023-02-15T01:58:15.216Z,101235.16
2023-02-15T02:00:46.950Z,101235.03
2023-02-15T02:03:17.160Z,101231.78
2023-02-15T02:05:46.124Z,101231.47
2023-02-15T02:08:15.489Z,101231.03
2023-02-15T02:10:44.181Z,101231.91
2023-02-15T02:13:13.143Z,101223.63
2023-02-15T02:15:54.967Z,101212.75
2023-02-15T02:18:37.898Z,101210.56
2023-02-15T02:21:46.239Z,101216.47
2023-02-15T02:24:43.184Z,101214.78
2023-02-15T02:27:34.960Z,101210.78
2023-02-15T02:30:28.096Z,101216.22
2023-02-15T02:33:19.067Z,101216.56
2023-02-15T02:35:55.997Z,101214.50
2023-02-15T02:38:31.538Z,101214.94
2023-02-15T02:41:15.452Z,101212.25
2023-02-15T02:43:53.137Z,101211.91
2023-02-15T02:46:29.001Z,101212.34
2023-02-15T02:48:59.622Z,101214.28
2023-02-15T02:51:28.592Z,101218.88
2023-02-15T02:53:59.572Z,101209.94
2023-02-15T02:56:33.060Z,101204.50
2023-02-15T02:59:07.549Z,101201.38
2023-02-15T03:01:45.549Z,101202.09
2023-02-15T03:04:19.850Z,101203.88
2023-02-15T03:06:53.729Z,101205.41
2023-02-15T03:09:36.343Z,101208.41
2023-02-15T03:12:06.618Z,101207.53
2023-02-15T03:14:41.605Z,101204.72
2023-02-15T03:17:12.595Z,101205.84
2023-02-15T03:19:43.763Z,101209.19
2023-02-15T03:22:17.425Z,101206.78
2023-02-15T03:24:52.356Z,101216.38
2023-02-15T03:27:26.318Z,101214.06
2023-02-15T03:29:58.449Z,101208.41
2023-02-15T03:32:30.670Z,101214.06
2023-02-15T03:35:01.567Z,101213.66
2023-02-15T03:37:37.837Z,101215.81
2023-02-15T03:40:26.604Z,101208.75
2023-02-15T03:43:02.337Z,101217.13
2023-02-15T03:45:35.780Z,101218.03
2023-02-15T03:48:07.466Z,101217.88
2023-02-15T03:50:50.656Z,101205.59
2023-02-15T03:53:23.693Z,101214.97
2023-02-15T03:55:55.729Z,101214.41
2023-02-15T03:58:34.227Z,101217.38
2023-02-15T04:01:21.658Z,101215.28
2023-02-15T04:03:57.565Z,101215.50
2023-02-15T04:06:27.844Z,101216.50
2023-02-15T04:09:06.493Z,101215.19
2023-02-15T04:11:35.273Z,101208.84
2023-02-15T04:14:24.135Z,101212.13
2023-02-15T04:16:51.979Z,101206.03
2023-02-15T04:19:29.597Z,101222.91
2023-02-15T04:22:09.730Z,101215.94
2023-02-15T04:24:48.328Z,101213.66
2023-02-15T04:27:17.872Z,101189.81
2023-02-15T04:29:46.681Z,101222.78
2023-02-15T04:32:15.533Z,101223.44
2023-02-15T04:34:44.248Z,101224.75
2023-02-15T04:37:14.491Z,101222.56
2023-02-15T04:39:43.289Z,101221.03
2023-02-15T04:42:11.992Z,101216.44
2023-02-15T04:44:41.097Z,101221.91
2023-02-15T04:47:09.793Z,101208.41
2023-02-15T04:49:38.739Z,101215.38
2023-02-15T04:52:07.529Z,101212.22
2023-02-15T04:54:39.254Z,101214.72
2023-02-15T04:57:08.345Z,101222.22
2023-02-15T04:59:37.081Z,101218.84
2023-02-15T05:02:06.150Z,101221.22
2023-02-15T05:04:34.906Z,101210.53
2023-02-15T05:07:03.676Z,101217.06
2023-02-15T05:09:32.548Z,101219.25
2023-02-15T05:12:03.031Z,101212.28
2023-02-15T05:14:31.813Z,101214.00
2023-02-15T05:17:02.679Z,101216.41
2023-02-15T05:19:31.553Z,101218.59
2023-02-15T05:22:00.445Z,101216.97
2023-02-15T05:24:39.571Z,101217.84
2023-02-15T05:27:22.351Z,101216.81
2023-02-15T05:29:51.477Z,101217.91
2023-02-15T05:32:20.404Z,101233.78
2023-02-15T05:34:49.301Z,101228.66
2023-02-15T05:37:18.014Z,101232.91
2023-02-15T05:39:47.478Z,101240.53
2023-02-15T05:42:17.666Z,101237.13
2023-02-15T05:44:47.003Z,101239.63
2023-02-15T05:47:15.751Z,101244.63
2023-02-15T05:49:44.465Z,101251.31
2023-02-15T05:52:13.388Z,101251.81
2023-02-15T05:54:42.254Z,101260.81
2023-02-15T05:57:10.995Z,101259.22
2023-02-15T05:59:41.212Z,101274.94
2023-02-15T06:02:10.122Z,101269.66
2023-02-15T06:04:39.007Z,101276.81
2023-02-15T06:07:07.956Z,101274.44
2023-02-15T06:09:36.666Z,101280.44
2023-02-15T06:12:05.687Z,101270.94
2023-02-15T06:14:34.361Z,101272.69
2023-02-15T06:17:04.459Z,101282.38
2023-02-15T06:19:33.326Z,101289.34
2023-02-15T06:22:02.110Z,101281.97
2023-02-15T06:24:30.970Z,101289.88
2023-02-15T06:26:59.740Z,101294.66
2023-02-15T06:29:28.534Z,101293.50
2023-02-15T06:31:57.282Z,101300.84
2023-02-15T06:34:27.687Z,101294.97
2023-02-15T06:36:56.347Z,101304.28
2023-02-15T06:39:25.128Z,101301.41
2023-02-15T06:41:53.945Z,101297.88
2023-02-15T06:44:22.751Z,101302.34
2023-02-15T06:46:52.118Z,101300.13
2023-02-15T06:49:20.745Z,101296.19
2023-02-15T06:51:50.987Z,101290.19
2023-02-15T06:54:19.783Z,101288.28
2023-02-15T06:56:48.757Z,101283.69
2023-02-15T06:59:17.706Z,101284.09
2023-02-15T07:01:46.466Z,101286.44
2023-02-15T07:04:15.255Z,101272.38
2023-02-15T07:06:44.430Z,101276.44
2023-02-15T07:09:15.050Z,101275.53
2023-02-15T07:11:54.639Z,101278.69
2023-02-15T07:14:23.225Z,101277.56
2023-02-15T07:16:51.948Z,101269.13
2023-02-15T07:19:20.734Z,101276.47
2023-02-15T07:21:49.448Z,101272.72
2023-02-15T07:24:19.506Z,101269.13
2023-02-15T07:26:48.355Z,101272.06
2023-02-15T07:29:17.469Z,101273.16
2023-02-15T07:31:46.597Z,101272.75
2023-02-15T07:34:16.586Z,101272.63
2023-02-15T07:36:46.968Z,101272.66
2023-02-15T07:39:15.857Z,101275.50
2023-02-15T07:41:46.008Z,101272.72
2023-02-15T07:44:15.620Z,101273.63
2023-02-15T07:46:44.400Z,101267.22
2023-02-15T07:49:13.253Z,101269.66
2023-02-15T07:51:44.349Z,101269.38
2023-02-15T07:54:13.167Z,101258.50
2023-02-15T07:56:42.147Z,101253.09
2023-02-15T07:59:13.040Z,101254.41
2023-02-15T08:01:42.278Z,101246.66
2023-02-15T08:04:12.270Z,101246.84
2023-02-15T08:06:41.266Z,101248.06
2023-02-15T08:09:11.952Z,101239.91
2023-02-15T08:11:42.041Z,101246.34
2023-02-15T08:14:14.088Z,101238.09
2023-02-15T08:16:44.786Z,101240.06
2023-02-15T08:19:16.066Z,101241.16
2023-02-15T08:21:47.546Z,101238.59
2023-02-15T08:24:17.977Z,101234.22
2023-02-15T08:26:47.938Z,101232.75
2023-02-15T08:29:20.576Z,101233.44
2023-02-15T08:31:49.897Z,101230.94
2023-02-15T08:34:20.873Z,101234.41
2023-02-15T08:36:49.856Z,101239.59
2023-02-15T08:39:18.836Z,101229.84
2023-02-15T08:41:49.838Z,101237.56
2023-02-15T08:44:21.926Z,101226.78
2023-02-15T08:46:51.406Z,101234.19
2023-02-15T08:49:22.081Z,101227.13
2023-02-15T08:51:52.115Z,101232.78
2023-02-15T08:54:23.713Z,101225.13
2023-02-15T08:56:52.445Z,101226.38
2023-02-15T08:59:25.546Z,101225.78
2023-02-15T09:01:55.569Z,101228.19
2023-02-15T09:04:24.469Z,101219.88
2023-02-15T09:06:53.332Z,101233.16
2023-02-15T09:09:22.632Z,101226.38
2023-02-15T09:11:58.836Z,101231.38
2023-02-15T09:14:29.903Z,101231.19
2023-02-15T09:16:58.784Z,101224.63
2023-02-15T09:19:27.727Z,101233.09
2023-02-15T09:21:56.559Z,101228.03
2023-02-15T09:24:25.338Z,101232.06
2023-02-15T09:26:54.072Z,101238.63
2023-02-15T09:29:23.983Z,101229.41
2023-02-15T09:31:54.795Z,101228.09
2023-02-15T09:34:25.119Z,101233.16
2023-02-15T09:36:54.629Z,101232.69
2023-02-15T09:39:25.848Z,101215.31
2023-02-15T09:42:27.546Z,101221.97
2023-02-15T09:45:12.823Z,101223.69
2023-02-15T09:48:12.094Z,101218.72
2023-02-15T09:50:56.068Z,101218.53
2023-02-15T09:53:49.623Z,101216.25
2023-02-15T09:56:31.840Z,101210.13
2023-02-15T09:59:12.798Z,101215.47
2023-02-15T10:01:52.931Z,101219.56
2023-02-15T10:04:41.769Z,101209.78
2023-02-15T10:07:22.584Z,101212.16
2023-02-15T10:10:07.618Z,101211.28
2023-02-15T10:12:52.457Z,101217.72
2023-02-15T10:15:45.026Z,101218.81
2023-02-15T10:18:27.436Z,101206.91
2023-02-15T10:21:09.814Z,101210.97
2023-02-15T10:24:07.288Z,101202.38
2023-02-15T10:26:42.358Z,101202.19
2023-02-15T10:29:19.183Z,101198.72
2023-02-15T10:31:51.984Z,101187.13
2023-02-15T10:34:23.054Z,101191.34
2023-02-15T10:37:27.235Z,101187.81
2023-02-15T10:40:05.967Z,101175.25
2023-02-15T10:42:47.648Z,101180.66
2023-02-15T10:45:30.525Z,101180.22
2023-02-15T10:48:25.883Z,101184.63
2023-02-15T10:50:56.436Z,101179.47
2023-02-15T10:53:51.089Z,101182.28
2023-02-15T10:56:28.569Z,101170.47
2023-02-15T10:59:22.730Z,101177.09
2023-02-15T11:01:58.945Z,101171.31
2023-02-15T11:04:43.574Z,101171.66
2023-02-15T11:07:20.605Z,101166.56
2023-02-15T11:09:54.551Z,101168.50
2023-02-15T11:12:29.311Z,101174.19
2023-02-15T11:15:05.357Z,101160.06
2023-02-15T11:17:40.225Z,101156.72
2023-02-15T11:20:19.338Z,101151.72
2023-02-15T11:22:54.757Z,101140.63
2023-02-15T11:25:27.668Z,101141.41
2023-02-15T11:27:58.778Z,101141.22
2023-02-15T11:30:36.453Z,101145.22
2023-02-15T11:33:08.740Z,101143.13
2023-02-15T11:35:44.197Z,101135.81
2023-02-15T11:38:17.480Z,101134.69
2023-02-15T11:40:50.500Z,101140.41
2023-02-15T11:43:28.951Z,101134.06
2023-02-15T11:45:57.916Z,101133.06
2023-02-15T11:48:26.812Z,101125.38
2023-02-15T11:50:55.753Z,101129.13
2023-02-15T11:53:26.553Z,101133.97
2023-02-15T11:55:55.885Z,101114.16
2023-02-15T11:58:33.081Z,101113.66
2023-02-15T12:01:11.753Z,101107.63
2023-02-15T12:03:48.564Z,101120.53
2023-02-15T12:06:27.413Z,101116.16
2023-02-15T12:09:08.723Z,101099.59
2023-02-15T12:11:40.077Z,101110.59
2023-02-15T12:14:12.878Z,101112.09
2023-02-15T12:16:47.582Z,101101.56
2023-02-15T12:19:31.550Z,101104.56
2023-02-15T12:22:02.260Z,101106.69
2023-02-15T12:24:34.903Z,101092.59
2023-02-15T12:27:06.518Z,101095.25
2023-02-15T12:29:44.235Z,101092.28
2023-02-15T12:32:20.826Z,101089.56
2023-02-15T12:34:51.312Z,101083.78
2023-02-15T12:37:23.849Z,101086.00
2023-02-15T12:39:58.256Z,101079.47
2023-02-15T12:42:30.569Z,101053.66
2023-02-15T12:45:02.949Z,101071.78
2023-02-15T12:47:33.630Z,101073.44
2023-02-15T12:50:12.672Z,101068.38
2023-02-15T12:52:41.569Z,101060.81
2023-02-15T12:55:21.779Z,101059.16
2023-02-15T12:57:51.745Z,101055.41
2023-02-15T13:00:33.159Z,101052.88
2023-02-15T13:03:04.353Z,101054.75
2023-02-15T13:05:39.614Z,101044.69
2023-02-15T13:08:16.701Z,101053.16
2023-02-15T13:10:56.822Z,101045.00
2023-02-15T13:13:30.074Z,101049.09
2023-02-15T13:16:04.508Z,101048.19
2023-02-15T13:18:36.839Z,101042.63
2023-02-15T13:21:14.022Z,101048.13
2023-02-15T13:23:49.650Z,101048.19
2023-02-15T13:26:22.034Z,101042.97
2023-02-15T13:28:55.289Z,101043.16
2023-02-15T13:31:29.061Z,101049.13
2023-02-15T13:34:05.062Z,101044.75
2023-02-15T13:36:42.572Z,101046.28
2023-02-15T13:39:22.228Z,101048.00
2023-02-15T13:41:55.250Z,101042.84
2023-02-15T13:44:37.175Z,101037.91
2023-02-15T13:47:20.164Z,101040.47
2023-02-15T13:50:03.065Z,101037.06
2023-02-15T13:52:39.140Z,101029.56
2023-02-15T13:55:28.356Z,101041.28
2023-02-15T13:58:16.160Z,101036.31
2023-02-15T14:00:58.274Z,101037.72
2023-02-15T14:03:59.705Z,101030.72
2023-02-15T14:06:47.090Z,101039.06
2023-02-15T14:09:27.796Z,101038.19
2023-02-15T14:12:13.749Z,101030.50
2023-02-15T14:14:56.178Z,101028.28
2023-02-15T14:17:32.370Z,101030.25
2023-02-15T14:20:12.024Z,101028.38
2023-02-15T14:22:45.655Z,101015.16
2023-02-15T14:25:29.913Z,101017.88
2023-02-15T14:28:06.594Z,101022.41
2023-02-15T14:30:39.082Z,101016.25
2023-02-15T14:33:10.972Z,101008.78
2023-02-15T14:35:43.321Z,101017.44
2023-02-15T14:38:22.963Z,101015.38
2023-02-15T14:41:05.365Z,101008.22
2023-02-15T14:43:46.025Z,101004.44
2023-02-15T14:46:24.730Z,101010.78
2023-02-15T14:48:56.132Z,101007.00
2023-02-15T14:51:47.104Z,101005.53
2023-02-15T14:54:41.642Z,100999.16
2023-02-15T14:57:27.139Z,100999.75
2023-02-15T14:59:59.503Z,101000.38
2023-02-15T15:02:32.232Z,100996.75
2023-02-15T15:05:10.722Z,100999.88
2023-02-15T15:07:46.123Z,100999.81
2023-02-15T15:10:36.976Z,101004.56
2023-02-15T15:13:30.313Z,100995.75
2023-02-15T15:16:41.046Z,100999.69
2023-02-15T15:19:13.916Z,101002.09
2023-02-15T15:21:55.831Z,101011.84
2023-02-15T15:24:46.664Z,101010.78
2023-02-15T15:27:37.118Z,101009.00
2023-02-15T15:30:43.746Z,100997.91
2023-02-15T15:33:32.093Z,100997.09
2023-02-15T15:36:24.298Z,100996.84
2023-02-15T15:39:07.766Z,100987.13
2023-02-15T15:41:43.968Z,100991.81
2023-02-15T15:44:38.652Z,100998.88
2023-02-15T15:47:23.885Z,100986.44
2023-02-15T15:49:58.616Z,100994.66
2023-02-15T15:52:29.317Z,100990.22
2023-02-15T15:55:04.871Z,100998.06
2023-02-15T15:57:40.768Z,101003.38
2023-02-15T16:00:34.636Z,101006.94
2023-02-15T16:03:03.541Z,101004.47
2023-02-15T16:05:40.367Z,101018.94
2023-02-15T16:08:09.401Z,101002.75
2023-02-15T16:10:39.043Z,101013.13
2023-02-15T16:13:09.060Z,101006.06
2023-02-15T16:15:50.676Z,101015.34
2023-02-15T16:18:21.180Z,101012.06
2023-02-15T16:20:56.774Z,101009.72
2023-02-15T16:24:06.864Z,101010.22
2023-02-15T16:26:56.971Z,101009.34
2023-02-15T16:29:31.931Z,101008.72
2023-02-15T16:32:03.300Z,101010.84
2023-02-15T16:34:34.235Z,101003.59
2023-02-15T16:37:19.012Z,101010.03
2023-02-15T16:39:50.168Z,101009.22
2023-02-15T16:42:20.228Z,100998.84
2023-02-15T16:44:53.567Z,101000.25
2023-02-15T16:47:27.040Z,100989.84
2023-02-15T16:49:58.826Z,100991.25
2023-02-15T16:52:30.806Z,101001.84
2023-02-15T16:55:02.573Z,101000.81
2023-02-15T16:57:36.041Z,100999.84
2023-02-15T17:00:08.416Z,101007.41
2023-02-15T17:02:55.132Z,101003.06
2023-02-15T17:05:25.336Z,101000.31
2023-02-15T17:08:17.786Z,100995.28
2023-02-15T17:11:04.316Z,101001.00
2023-02-15T17:13:33.913Z,101004.84
2023-02-15T17:16:32.926Z,101001.22
2023-02-15T17:19:03.545Z,101003.66
2023-02-15T17:21:36.570Z,100997.81
2023-02-15T17:24:07.151Z,101002.75
2023-02-15T17:26:39.167Z,100998.75
2023-02-15T17:29:20.331Z,101000.88
2023-02-15T17:31:51.457Z,101000.00
2023-02-15T17:34:45.998Z,100998.88
2023-02-15T17:37:15.654Z,100997.31
2023-02-15T17:39:46.000Z,100988.19
2023-02-15T17:42:14.800Z,100989.44
2023-02-15T17:44:43.468Z,100997.84
2023-02-15T17:47:16.388Z,100996.75
2023-02-15T17:49:45.408Z,101000.03
2023-02-15T17:52:15.811Z,100998.28
2023-02-15T17:54:56.581Z,101000.03
2023-02-15T17:57:26.595Z,100991.03
2023-02-15T18:00:05.239Z,100991.63
2023-02-15T18:02:51.332Z,100990.84
2023-02-15T18:05:30.169Z,100991.72
2023-02-15T18:08:09.006Z,100985.88
2023-02-15T18:10:48.206Z,100989.78
2023-02-15T18:13:16.918Z,100989.78
2023-02-15T18:15:45.825Z,100989.63
2023-02-15T18:18:17.247Z,100987.72
2023-02-15T18:20:46.105Z,100989.28
2023-02-15T18:23:16.099Z,100978.88
2023-02-15T18:25:46.637Z,100988.56
2023-02-15T18:28:15.592Z,100987.34
2023-02-15T18:30:45.390Z,100984.38
2023-02-15T18:33:27.474Z,100989.59
2023-02-15T18:35:56.302Z,100986.97
2023-02-15T18:38:24.989Z,100994.09
2023-02-15T18:40:55.279Z,100989.06
2023-02-15T18:43:24.003Z,100995.47
2023-02-15T18:45:52.888Z,100998.41
2023-02-15T18:48:21.850Z,100994.47
2023-02-15T18:50:52.246Z,101000.44
2023-02-15T18:53:23.628Z,101003.03
2023-02-15T18:55:52.506Z,100997.00
2023-02-15T18:58:26.287Z,101006.91
2023-02-15T19:00:55.719Z,100999.56
2023-02-15T19:03:24.399Z,101002.50
2023-02-15T19:05:53.179Z,101000.59
2023-02-15T19:08:24.813Z,100998.75
2023-02-15T19:10:54.441Z,100999.53
2023-02-15T19:13:25.049Z,100992.69
2023-02-15T19:15:54.205Z,100974.16
2023-02-15T19:18:22.908Z,100988.75
2023-02-15T19:20:51.852Z,100985.47
2023-02-15T19:23:23.893Z,100983.03
2023-02-15T19:25:54.998Z,100983.03
2023-02-15T19:28:33.043Z,100985.47
2023-02-15T19:31:01.938Z,100995.91
2023-02-15T19:33:30.713Z,100991.34
2023-02-15T19:35:59.628Z,100985.09
2023-02-15T19:38:32.578Z,100989.28
2023-02-15T19:41:06.147Z,100986.78
2023-02-15T19:43:37.198Z,100980.81
2023-02-15T19:46:06.613Z,100987.38
2023-02-15T19:48:35.535Z,100987.38
2023-02-15T19:51:05.450Z,100988.06
2023-02-15T19:53:34.282Z,100983.50
2023-02-15T19:56:03.392Z,100988.72
2023-02-15T19:58:33.881Z,100977.94
2023-02-15T20:01:04.573Z,100986.13
2023-02-15T20:03:33.545Z,100986.41
2023-02-15T20:06:02.623Z,100984.84
2023-02-15T20:08:33.122Z,100987.09
2023-02-15T20:11:03.071Z,100978.28
2023-02-15T20:13:31.991Z,100989.31
2023-02-15T20:16:05.404Z,100984.09
2023-02-15T20:18:35.740Z,100987.75
2023-02-15T20:21:05.442Z,100983.72
2023-02-15T20:23:37.315Z,100984.94
2023-02-15T20:26:15.843Z,100988.53
2023-02-15T20:28:45.385Z,100988.13
2023-02-15T20:31:16.969Z,100986.22
2023-02-15T20:33:47.676Z,100987.38
2023-02-15T20:36:18.287Z,100993.34
2023-02-15T20:38:47.924Z,100991.03
2023-02-15T20:41:29.320Z,100988.44
2023-02-15T20:43:58.746Z,100989.72
2023-02-15T20:46:27.762Z,100993.38
2023-02-15T20:48:58.053Z,100998.97
2023-02-15T20:51:27.116Z,100988.53
2023-02-15T20:53:55.841Z,100988.72
2023-02-15T20:56:26.343Z,100979.56
2023-02-15T20:58:55.412Z,100979.09
2023-02-15T21:01:24.209Z,100987.75
2023-02-15T21:03:53.105Z,100980.31
2023-02-15T21:06:23.731Z,100974.41
2023-02-15T21:08:52.616Z,100979.25
2023-02-15T21:11:23.830Z,100974.06
2023-02-15T21:13:52.793Z,100969.72
2023-02-15T21:16:21.494Z,100967.69
2023-02-15T21:18:50.278Z,100977.53
2023-02-15T21:21:24.869Z,100978.13
2023-02-15T21:23:54.471Z,100976.50
2023-02-15T21:26:24.230Z,100975.63
2023-02-15T21:28:53.397Z,100969.44
2023-02-15T21:31:25.353Z,100972.53
2023-02-15T21:33:55.354Z,100972.44
2023-02-15T21:36:27.019Z,100967.31
2023-02-15T21:38:56.953Z,100968.19
2023-02-15T21:41:36.082Z,100966.94
2023-02-15T21:44:26.644Z,100958.44
2023-02-15T21:47:05.433Z,100954.88
2023-02-15T21:49:34.224Z,100950.72
2023-02-15T21:52:13.135Z,100953.84
2023-02-15T21:54:42.454Z,100954.78
2023-02-15T21:57:15.876Z,100958.25
2023-02-15T21:59:47.073Z,100951.63
2023-02-15T22:02:28.752Z,100949.00
2023-02-15T22:04:58.236Z,100956.50
2023-02-15T22:07:28.461Z,100953.66
2023-02-15T22:09:57.224Z,100949.00
2023-02-15T22:12:26.039Z,100955.38
2023-02-15T22:14:55.373Z,100948.81
2023-02-15T22:17:25.987Z,100951.03
2023-02-15T22:19:54.914Z,100949.47
2023-02-15T22:22:23.957Z,100951.81
2023-02-15T22:24:54.225Z,100951.41
2023-02-15T22:27:26.310Z,100943.81
2023-02-15T22:29:56.804Z,100945.16
2023-02-15T22:32:27.489Z,100947.06
2023-02-15T22:34:56.492Z,100948.63
2023-02-15T22:37:25.232Z,100947.88
2023-02-15T22:39:55.669Z,100941.31
2023-02-15T22:42:27.646Z,100937.44
2023-02-15T22:44:58.822Z,100940.91
2023-02-15T22:47:32.687Z,100936.09
2023-02-15T22:50:02.227Z,100938.00
2023-02-15T22:52:34.310Z,100938.00
2023-02-15T22:55:04.724Z,100931.09
2023-02-15T22:57:34.620Z,100936.25
2023-02-15T23:00:04.068Z,100939.94
2023-02-15T23:02:33.211Z,100944.94
2023-02-15T23:05:02.290Z,100937.81
2023-02-15T23:07:31.395Z,100941.19
2023-02-15T23:10:00.336Z,100949.19
2023-02-15T23:12:54.537Z,100933.38
2023-02-15T23:15:23.497Z,100945.03
2023-02-15T23:17:52.359Z,100943.91
2023-02-15T23:20:22.128Z,100947.47
2023-02-15T23:22:51.264Z,100953.16
2023-02-15T23:25:24.817Z,100946.59
2023-02-15T23:27:58.367Z,100944.19
2023-02-15T23:30:28.667Z,100942.47
2023-02-15T23:32:58.831Z,100943.72
2023-02-15T23:35:28.071Z,100944.47
2023-02-15T23:37:57.385Z,100941.00
2023-02-15T23:40:36.237Z,100944.38
2023-02-15T23:43:08.543Z,100933.38
2023-02-15T23:45:41.081Z,100928.78
2023-02-15T23:48:31.060Z,100930.69
2023-02-15T23:51:00.983Z,100931.16
2023-02-15T23:53:30.394Z,100919.38
2023-02-15T23:55:59.815Z,100917.66
2023-02-15T23:58:38.376Z,100916.69
